Time;durP1;ratioP1;P1;durP2;ratioP2;P2;SDS_P1;SDS_P2;PMS_P1;PMS_P2;Temp;Humidity;BMP_temperature;BMP_pressure;BME280_temperature;BME280_humidity;BME280_pressure;Samples;Min_cycle;Max_cycle;Signal;HPM_P1;HPM_P2
2023/09/04 00:01:55;;;;;;;2.75;1.95;;;19.10;99.90;;;;;;7385974;19;20292;-77
2023/09/04 00:04:21;;;;;;;2.90;1.88;;;19.20;99.90;;;;;;7388437;19;20221;-78
2023/09/04 00:06:46;;;;;;;3.13;1.98;;;19.30;99.90;;;;;;7385916;19;20139;-78
2023/09/04 00:09:14;;;;;;;3.20;2.38;;;19.10;99.90;;;;;;7388123;19;20138;-78
2023/09/04 00:11:40;;;;;;;2.35;1.88;;;19.00;99.90;;;;;;7381582;19;20191;-79
2023/09/04 00:14:06;;;;;;;2.55;1.85;;;19.00;99.90;;;;;;7387063;19;20436;-78
2023/09/04 00:16:32;;;;;;;2.17;1.98;;;19.00;99.90;;;;;;7387668;19;20195;-78
2023/09/04 00:18:58;;;;;;;4.13;2.17;;;18.70;99.90;;;;;;7388362;19;20588;-76
2023/09/04 00:21:25;;;;;;;2.50;2.10;;;18.80;99.90;;;;;;7388690;19;20134;-77
2023/09/04 00:23:51;;;;;;;1.98;1.80;;;18.90;99.90;;;;;;7387066;19;20143;-78
2023/09/04 00:26:16;;;;;;;3.35;2.30;;;19.20;99.90;;;;;;7386372;19;20131;-77
2023/09/04 00:28:42;;;;;;;2.70;1.77;;;19.10;99.90;;;;;;7387949;19;20130;-76
2023/09/04 00:31:08;;;;;;;2.63;2.08;;;18.80;99.90;;;;;;7385514;19;20159;-77
2023/09/04 00:33:33;;;;;;;2.30;1.92;;;18.80;99.90;;;;;;7384437;19;20131;-77
2023/09/04 00:36:02;;;;;;;3.53;1.83;;;18.80;99.90;;;;;;7386790;19;20189;-78
2023/09/04 00:38:27;;;;;;;2.35;2.03;;;18.80;99.90;;;;;;7387568;19;20157;-77
2023/09/04 00:40:53;;;;;;;2.10;1.90;;;18.90;99.90;;;;;;7386078;19;20572;-78
2023/09/04 00:43:19;;;;;;;3.20;2.20;;;19.00;99.90;;;;;;7385477;19;20134;-78
2023/09/04 00:45:46;;;;;;;2.20;2.00;;;19.20;99.90;;;;;;7387832;19;20126;-78
2023/09/04 00:48:12;;;;;;;2.80;2.25;;;18.90;99.90;;;;;;7388175;19;20150;-78
2023/09/04 00:50:40;;;;;;;2.40;1.75;;;19.20;99.90;;;;;;7384569;19;20218;-78
2023/09/04 00:53:08;;;;;;;3.38;2.00;;;19.10;99.90;;;;;;7388842;19;20469;-77
2023/09/04 00:55:34;;;;;;;2.50;1.77;;;18.90;99.90;;;;;;7384874;19;20131;-78
2023/09/04 00:58:00;;;;;;;1.90;1.73;;;18.70;99.90;;;;;;7386512;19;20163;-78
2023/09/04 01:00:27;;;;;;;2.85;2.28;;;18.50;99.90;;;;;;7385037;19;20714;-78
2023/09/04 01:02:54;;;;;;;3.75;1.95;;;18.90;99.90;;;;;;7387587;19;20146;-77
2023/09/04 01:05:20;;;;;;;1.90;1.70;;;18.80;99.90;;;;;;7383709;19;20544;-78
2023/09/04 01:07:47;;;;;;;3.05;2.33;;;19.00;99.90;;;;;;7384637;19;20134;-78
2023/09/04 01:10:14;;;;;;;2.22;1.83;;;18.90;99.90;;;;;;7385545;19;20141;-79
2023/09/04 01:12:59;;;;;;;2.85;1.90;;;18.70;99.90;;;;;;7384315;19;20150;-78
2023/09/04 01:15:26;;;;;;;5.65;2.10;;;18.70;99.90;;;;;;7386945;19;20142;-78
2023/09/04 01:17:53;;;;;;;3.58;2.33;;;18.90;99.90;;;;;;7385150;19;20587;-78
2023/09/04 01:20:30;;;;;;;3.03;2.00;;;19.20;99.90;;;;;;7385110;19;20141;-79
2023/09/04 01:22:57;;;;;;;3.05;1.90;;;19.20;99.90;;;;;;7384490;19;20162;-78
2023/09/04 01:25:33;;;;;;;2.10;1.88;;;19.30;99.90;;;;;;7385339;19;20134;-78
2023/09/04 01:28:12;;;;;;;2.63;2.13;;;19.10;99.90;;;;;;7384159;19;20206;-78
2023/09/04 01:30:55;;;;;;;2.50;1.80;;;19.20;99.90;;;;;;7384445;19;20148;-77
2023/09/04 01:33:31;;;;;;;2.38;2.10;;;19.20;99.90;;;;;;7387563;19;20618;-78
2023/09/04 01:36:01;;;;;;;2.47;2.10;;;19.30;99.90;;;;;;7385485;19;20134;-78
2023/09/04 01:38:27;;;;;;;3.55;2.17;;;19.30;99.90;;;;;;7384885;19;20500;-77
2023/09/04 01:40:53;;;;;;;2.83;2.22;;;19.20;99.90;;;;;;7384805;19;20146;-78
2023/09/04 01:43:19;;;;;;;4.47;2.25;;;19.10;99.90;;;;;;7383086;19;20455;-77
2023/09/04 01:45:45;;;;;;;4.40;2.00;;;18.80;99.90;;;;;;7387827;19;20142;-78
2023/09/04 01:48:10;;;;;;;2.45;2.10;;;18.70;99.90;;;;;;7390875;19;20233;-77
2023/09/04 01:50:36;;;;;;;8.65;2.97;;;18.60;99.90;;;;;;7389817;19;20166;-79
2023/09/04 01:53:02;;;;;;;3.55;2.00;;;18.40;99.90;;;;;;7390249;19;20151;-78
2023/09/04 01:55:28;;;;;;;2.30;2.10;;;18.50;99.90;;;;;;7390876;19;20493;-78
2023/09/04 01:57:53;;;;;;;2.38;2.03;;;18.40;99.90;;;;;;7389511;19;20218;-78
2023/09/04 02:00:19;;;;;;;2.78;2.22;;;18.60;99.90;;;;;;7391759;19;20130;-78
2023/09/04 02:02:45;;;;;;;4.32;2.28;;;18.90;99.90;;;;;;7391827;19;20131;-78
2023/09/04 02:05:11;;;;;;;2.33;2.00;;;19.00;99.90;;;;;;7389497;19;20157;-78
2023/09/04 02:07:36;;;;;;;2.38;2.00;;;18.90;99.90;;;;;;7391059;19;20147;-79
2023/09/04 02:10:03;;;;;;;2.25;1.70;;;18.60;99.90;;;;;;7390189;19;20130;-77
2023/09/04 02:12:28;;;;;;;2.42;2.20;;;18.80;99.90;;;;;;7389621;19;20139;-77
2023/09/04 02:14:54;;;;;;;3.42;2.38;;;19.00;99.90;;;;;;7387175;19;20141;-78
2023/09/04 02:17:20;;;;;;;2.70;2.10;;;19.00;99.90;;;;;;7385679;19;20139;-77
2023/09/04 02:19:45;;;;;;;3.08;2.10;;;19.10;99.90;;;;;;7390373;19;20272;-79
2023/09/04 02:22:11;;;;;;;2.10;1.83;;;19.00;99.90;;;;;;7392333;19;20139;-78
2023/09/04 02:24:37;;;;;;;4.57;2.50;;;18.60;99.90;;;;;;7389716;19;20442;-78
2023/09/04 02:27:03;;;;;;;2.33;1.60;;;18.70;99.90;;;;;;7389745;19;20278;-78
2023/09/04 02:29:29;;;;;;;2.33;1.80;;;18.60;99.90;;;;;;7391313;19;20241;-77
2023/09/04 02:31:55;;;;;;;3.03;2.05;;;18.40;99.90;;;;;;7386839;19;20618;-78
2023/09/04 02:34:21;;;;;;;3.58;1.98;;;18.20;99.90;;;;;;7391575;19;20130;-77
2023/09/04 02:36:46;;;;;;;1.88;1.67;;;18.20;99.90;;;;;;7391006;19;20467;-77
2023/09/04 02:39:12;;;;;;;2.20;2.00;;;18.10;99.90;;;;;;7389760;19;20147;-78
2023/09/04 02:41:38;;;;;;;4.32;2.10;;;18.00;99.90;;;;;;7389908;19;20631;-77
2023/09/04 02:44:04;;;;;;;2.10;1.90;;;18.00;99.90;;;;;;7390402;19;20484;-77
2023/09/04 02:46:32;;;;;;;3.15;1.92;;;18.00;99.90;;;;;;7389066;19;20139;-79
2023/09/04 02:48:58;;;;;;;2.95;1.95;;;17.90;99.90;;;;;;7388583;19;20130;-78
2023/09/04 02:51:24;;;;;;;2.45;1.80;;;17.70;99.90;;;;;;7387484;19;20198;-78
2023/09/04 02:53:50;;;;;;;2.55;2.25;;;17.60;99.90;;;;;;7388254;19;20138;-79
2023/09/04 02:56:15;;;;;;;3.20;2.47;;;17.60;99.90;;;;;;7384394;19;20142;-79
2023/09/04 02:58:43;;;;;;;3.05;2.03;;;17.80;99.90;;;;;;7383886;19;20191;-78
2023/09/04 03:01:09;;;;;;;2.97;2.25;;;18.00;99.90;;;;;;7387480;19;20142;-77
2023/09/04 03:03:36;;;;;;;3.17;2.33;;;18.20;99.90;;;;;;7389195;19;20145;-78
2023/09/04 03:06:11;;;;;;;3.40;2.20;;;18.20;99.90;;;;;;7388121;19;20139;-79
2023/09/04 03:08:40;;;;;;;4.40;2.38;;;18.30;99.90;;;;;;7390131;19;20205;-78
2023/09/04 03:11:10;;;;;;;2.30;2.00;;;18.20;99.90;;;;;;7386159;19;20574;-79
2023/09/04 03:13:36;;;;;;;2.63;2.20;;;18.40;99.90;;;;;;7390288;19;20523;-78
2023/09/04 03:16:04;;;;;;;3.17;2.40;;;18.10;99.90;;;;;;7387834;19;20268;-78
2023/09/04 03:18:30;;;;;;;2.70;2.08;;;18.20;99.90;;;;;;7389807;19;20187;-78
2023/09/04 03:20:56;;;;;;;2.53;2.30;;;18.30;99.90;;;;;;7388085;19;20138;-78
2023/09/04 03:23:21;;;;;;;2.20;1.70;;;18.20;99.90;;;;;;7387011;19;20546;-77
2023/09/04 03:25:47;;;;;;;2.53;2.05;;;17.90;99.90;;;;;;7391500;19;20571;-77
2023/09/04 03:28:13;;;;;;;3.67;2.10;;;17.90;99.90;;;;;;7387531;19;20146;-78
2023/09/04 03:30:38;;;;;;;3.40;2.22;;;17.80;99.90;;;;;;7387621;19;20134;-78
2023/09/04 03:33:04;;;;;;;4.32;2.30;;;17.70;99.90;;;;;;7388120;19;20135;-78
2023/09/04 03:35:30;;;;;;;2.25;2.03;;;17.90;99.90;;;;;;7388771;19;20146;-78
2023/09/04 03:37:56;;;;;;;2.47;2.25;;;18.00;99.90;;;;;;7387769;19;20521;-78
2023/09/04 03:40:25;;;;;;;5.65;2.55;;;18.10;99.90;;;;;;7389914;19;20142;-78
2023/09/04 03:42:52;;;;;;;3.00;2.17;;;18.30;99.90;;;;;;7388145;19;20170;-77
2023/09/04 03:45:19;;;;;;;4.78;2.17;;;18.20;99.90;;;;;;7389924;19;20134;-78
2023/09/04 03:47:46;;;;;;;4.38;2.67;;;18.10;99.90;;;;;;7389012;19;20261;-77
2023/09/04 03:50:12;;;;;;;2.95;2.40;;;18.00;99.90;;;;;;7387534;19;20142;-76
2023/09/04 03:52:39;;;;;;;2.53;2.33;;;18.20;99.90;;;;;;7387131;19;20213;-78
2023/09/04 03:55:10;;;;;;;2.78;1.95;;;18.40;99.90;;;;;;7385684;19;20141;-78
2023/09/04 03:57:36;;;;;;;3.90;2.38;;;18.10;99.90;;;;;;7386784;19;20206;-76
2023/09/04 04:00:14;;;;;;;3.05;2.40;;;18.10;99.90;;;;;;7388023;19;20147;-78
2023/09/04 04:02:44;;;;;;;2.78;2.38;;;18.10;99.90;;;;;;7388619;19;20130;-77
2023/09/04 04:05:11;;;;;;;3.00;2.38;;;18.00;99.90;;;;;;7386544;19;20270;-78
2023/09/04 04:07:38;;;;;;;3.75;2.00;;;18.00;99.90;;;;;;7387432;19;20643;-78
2023/09/04 04:10:05;;;;;;;3.63;2.30;;;17.80;99.90;;;;;;7389207;19;20146;-78
2023/09/04 04:12:31;;;;;;;2.92;2.30;;;18.00;99.90;;;;;;7385280;19;20127;-77
2023/09/04 04:14:58;;;;;;;5.90;2.85;;;18.20;99.90;;;;;;7388521;19;20158;-77
2023/09/04 04:17:25;;;;;;;4.30;2.20;;;17.80;99.90;;;;;;7386160;19;20154;-77
2023/09/04 04:19:53;;;;;;;2.30;2.10;;;17.50;99.90;;;;;;7387532;19;20141;-78
2023/09/04 04:22:23;;;;;;;2.95;2.55;;;17.40;99.90;;;;;;7388859;19;20139;-79
2023/09/04 04:24:49;;;;;;;3.28;2.30;;;17.60;99.90;;;;;;7386401;19;20217;-79
2023/09/04 04:27:16;;;;;;;3.35;2.53;;;17.50;99.90;;;;;;7386408;19;20142;-78
2023/09/04 04:29:48;;;;;;;2.55;2.28;;;17.50;99.90;;;;;;7388402;19;20145;-80
2023/09/04 04:32:14;;;;;;;3.13;2.45;;;17.50;99.90;;;;;;7385482;19;20155;-78
2023/09/04 04:34:42;;;;;;;3.42;2.38;;;17.30;99.90;;;;;;7386877;19;20130;-79
2023/09/04 04:37:08;;;;;;;3.13;2.42;;;17.40;99.90;;;;;;7387607;19;20458;-78
2023/09/04 04:39:34;;;;;;;4.47;2.90;;;17.60;99.90;;;;;;7384984;19;20230;-78
2023/09/04 04:42:00;;;;;;;4.00;2.72;;;17.90;99.90;;;;;;7386998;19;20485;-77
2023/09/04 04:44:26;;;;;;;2.80;2.50;;;17.90;99.90;;;;;;7385390;19;20135;-78
2023/09/04 04:46:52;;;;;;;5.20;2.78;;;17.90;99.90;;;;;;7386260;19;20607;-78
2023/09/04 04:49:20;;;;;;;5.03;2.78;;;17.90;99.90;;;;;;7386988;19;20229;-79
2023/09/04 04:51:46;;;;;;;3.63;2.65;;;17.90;99.90;;;;;;7382867;19;20150;-79
2023/09/04 04:54:12;;;;;;;3.03;2.72;;;17.50;99.90;;;;;;7385644;19;20590;-79
2023/09/04 04:56:39;;;;;;;4.93;2.85;;;17.60;99.90;;;;;;7384767;19;20157;-78
2023/09/04 04:59:07;;;;;;;6.18;2.70;;;17.40;99.90;;;;;;7386266;19;20165;-79
2023/09/04 05:01:33;;;;;;;2.60;2.40;;;17.70;99.90;;;;;;7386784;19;20122;-79
2023/09/04 05:03:59;;;;;;;6.90;3.00;;;17.50;99.90;;;;;;7386621;19;20494;-78
2023/09/04 05:06:24;;;;;;;4.95;2.92;;;17.70;99.90;;;;;;7383169;19;21946;-80
2023/09/04 05:08:51;;;;;;;2.75;2.55;;;17.80;99.90;;;;;;7385121;19;20237;-79
2023/09/04 05:11:17;;;;;;;4.55;2.75;;;17.60;99.90;;;;;;7384112;19;20145;-80
2023/09/04 05:13:42;;;;;;;3.55;2.58;;;17.50;99.90;;;;;;7386063;19;20126;-80
2023/09/04 05:16:08;;;;;;;3.40;2.85;;;17.60;99.90;;;;;;7384339;19;20154;-78
2023/09/04 05:18:34;;;;;;;3.28;2.95;;;17.40;99.90;;;;;;7385764;19;20150;-79
2023/09/04 05:21:03;;;;;;;2.97;2.67;;;17.70;99.90;;;;;;7386592;19;20141;-78
2023/09/04 05:23:29;;;;;;;5.28;2.67;;;17.80;99.90;;;;;;7384456;19;20686;-78
2023/09/04 05:25:55;;;;;;;3.33;2.88;;;17.80;99.90;;;;;;7384056;19;20150;-78
2023/09/04 05:28:20;;;;;;;5.05;3.33;;;17.80;99.90;;;;;;7386770;19;20488;-79
2023/09/04 05:30:46;;;;;;;6.55;2.90;;;17.70;99.90;;;;;;7384769;19;20138;-78
2023/09/04 05:33:13;;;;;;;4.70;3.38;;;17.70;99.90;;;;;;7381560;19;20605;-80
2023/09/04 05:35:38;;;;;;;3.75;2.70;;;17.80;99.90;;;;;;7380597;19;20563;-79
2023/09/04 05:38:04;;;;;;;6.07;2.72;;;17.40;99.90;;;;;;7384719;19;20130;-78
2023/09/04 05:40:30;;;;;;;3.40;2.72;;;17.50;99.90;;;;;;7383938;19;20587;-78
2023/09/04 05:42:58;;;;;;;7.35;3.17;;;17.80;99.90;;;;;;7384922;19;20152;-76
2023/09/04 05:45:24;;;;;;;4.90;2.70;;;18.00;99.90;;;;;;7383551;19;20168;-79
2023/09/04 05:47:53;;;;;;;3.10;2.60;;;18.10;99.90;;;;;;7385062;19;20198;-79
2023/09/04 05:50:19;;;;;;;2.85;2.55;;;18.10;99.90;;;;;;7386416;19;20494;-78
2023/09/04 05:52:44;;;;;;;3.00;2.63;;;17.70;99.90;;;;;;7381208;19;20144;-78
2023/09/04 05:55:10;;;;;;;5.10;2.90;;;17.30;99.90;;;;;;7385537;19;20166;-77
2023/09/04 05:57:36;;;;;;;3.45;3.03;;;17.50;99.90;;;;;;7384414;19;20169;-79
2023/09/04 06:00:06;;;;;;;4.53;2.90;;;17.90;99.90;;;;;;7388219;19;20498;-80
2023/09/04 06:02:32;;;;;;;20.20;4.93;;;17.90;99.90;;;;;;7380394;19;20130;-79
2023/09/04 06:04:58;;;;;;;8.88;3.85;;;17.60;99.90;;;;;;7383590;19;20146;-79
2023/09/04 06:07:24;;;;;;;6.33;3.67;;;17.70;99.90;;;;;;7383245;19;20391;-81
2023/09/04 06:09:49;;;;;;;4.30;2.70;;;17.90;99.90;;;;;;7383196;19;20131;-79
2023/09/04 06:12:16;;;;;;;4.18;3.15;;;18.00;99.90;;;;;;7382412;19;20184;-78
2023/09/04 06:14:41;;;;;;;4.85;3.13;;;18.20;99.90;;;;;;7383872;19;20138;-77
2023/09/04 06:17:07;;;;;;;3.45;3.13;;;18.40;99.90;;;;;;7384962;19;20165;-79
2023/09/04 06:19:33;;;;;;;4.93;3.40;;;18.30;99.90;;;;;;7381510;19;20135;-80
2023/09/04 06:21:59;;;;;;;6.57;3.40;;;18.20;99.90;;;;;;7385199;19;20161;-79
2023/09/04 06:24:24;;;;;;;5.60;3.45;;;18.20;99.90;;;;;;7383299;19;20250;-78
2023/09/04 06:26:51;;;;;;;4.57;2.92;;;18.00;99.90;;;;;;7381165;19;20162;-76
2023/09/04 06:29:17;;;;;;;4.00;2.95;;;17.90;99.90;;;;;;7383473;19;20141;-78
2023/09/04 06:31:44;;;;;;;5.00;3.92;;;18.00;99.90;;;;;;7386247;19;20175;-78
2023/09/04 06:34:10;;;;;;;8.88;3.92;;;18.20;99.90;;;;;;7389956;19;20139;-77
2023/09/04 06:36:35;;;;;;;5.07;3.50;;;18.40;99.90;;;;;;7391819;19;20134;-77
2023/09/04 06:39:03;;;;;;;4.47;3.40;;;18.40;99.90;;;;;;7389113;19;20462;-77
2023/09/04 06:41:29;;;;;;;4.68;3.55;;;18.40;99.90;;;;;;7390311;19;20135;-76
2023/09/04 06:43:55;;;;;;;4.53;3.15;;;18.40;99.90;;;;;;7390099;19;20138;-76
2023/09/04 06:46:21;;;;;;;6.25;4.35;;;18.40;99.90;;;;;;7388167;19;20171;-76
2023/09/04 06:48:47;;;;;;;5.03;3.42;;;18.40;99.90;;;;;;7390099;19;20174;-75
2023/09/04 06:51:13;;;;;;;6.53;3.65;;;18.40;99.90;;;;;;7389297;19;20607;-76
2023/09/04 06:53:38;;;;;;;5.45;3.95;;;18.50;99.90;;;;;;7388760;19;20135;-77
2023/09/04 06:56:04;;;;;;;7.05;3.70;;;18.50;99.90;;;;;;7387677;19;20620;-77
2023/09/04 06:58:30;;;;;;;4.18;3.38;;;18.50;99.90;;;;;;7390803;19;20168;-76
2023/09/04 07:00:56;;;;;;;5.00;3.60;;;18.60;99.90;;;;;;7390441;19;20850;-76
2023/09/04 07:03:22;;;;;;;4.65;3.55;;;18.60;99.90;;;;;;7385400;19;20836;-77
2023/09/04 07:05:49;;;;;;;5.22;4.20;;;18.70;99.90;;;;;;7381358;19;20273;-77
2023/09/04 07:08:15;;;;;;;5.43;3.85;;;18.80;99.90;;;;;;7387380;19;20158;-77
2023/09/04 07:10:42;;;;;;;4.65;3.38;;;18.80;99.90;;;;;;7388307;19;20699;-79
2023/09/04 07:13:08;;;;;;;5.05;3.40;;;18.80;99.90;;;;;;7389397;19;20441;-78
2023/09/04 07:15:34;;;;;;;6.57;3.92;;;18.80;99.90;;;;;;7390058;19;20198;-78
2023/09/04 07:18:00;;;;;;;4.65;3.65;;;18.90;99.90;;;;;;7388737;19;20615;-78
2023/09/04 07:20:29;;;;;;;4.20;3.13;;;19.00;99.90;;;;;;7391190;19;20139;-77
2023/09/04 07:22:55;;;;;;;4.68;4.05;;;19.10;99.90;;;;;;7388344;19;20146;-77
2023/09/04 07:25:21;;;;;;;5.07;3.72;;;19.30;99.90;;;;;;7388576;19;20130;-76
2023/09/04 07:27:47;;;;;;;5.10;3.70;;;19.40;99.90;;;;;;7390702;19;20168;-78
2023/09/04 07:30:13;;;;;;;7.25;3.30;;;19.50;99.90;;;;;;7387929;19;20490;-77
2023/09/04 07:32:39;;;;;;;5.07;3.22;;;19.60;99.90;;;;;;7386300;19;20150;-77
2023/09/04 07:35:05;;;;;;;3.97;3.13;;;19.70;99.90;;;;;;7391235;19;20141;-77
2023/09/04 07:37:31;;;;;;;4.32;3.30;;;19.80;99.90;;;;;;7390679;19;21281;-77
2023/09/04 07:39:57;;;;;;;4.40;3.22;;;19.90;99.90;;;;;;7386192;19;20464;-78
2023/09/04 07:42:23;;;;;;;4.50;3.25;;;20.10;99.90;;;;;;7388872;19;20131;-78
2023/09/04 07:44:49;;;;;;;5.10;2.85;;;20.30;99.90;;;;;;7386616;19;20233;-77
2023/09/04 07:47:15;;;;;;;4.53;3.30;;;20.70;99.90;;;;;;7391130;19;20139;-78
2023/09/04 07:49:41;;;;;;;4.93;2.85;;;21.20;99.90;;;;;;7387988;19;20148;-78
2023/09/04 07:52:06;;;;;;;5.00;3.13;;;21.80;99.90;;;;;;7386802;19;20595;-76
2023/09/04 07:54:32;;;;;;;3.75;2.63;;;22.40;99.90;;;;;;7387347;19;20264;-80
2023/09/04 07:57:04;;;;;;;4.40;2.97;;;22.90;99.90;;;;;;7389420;19;20193;-78
2023/09/04 07:59:30;;;;;;;3.75;2.95;;;23.00;99.90;;;;;;7391342;19;20138;-79
2023/09/04 08:01:56;;;;;;;7.28;3.08;;;23.10;99.90;;;;;;7387454;19;20159;-83
2023/09/04 08:04:21;;;;;;;4.10;3.13;;;23.10;99.90;;;;;;7388222;19;20155;-79
2023/09/04 08:06:47;;;;;;;3.92;2.78;;;23.20;99.90;;;;;;7387681;19;20154;-78
2023/09/04 08:09:14;;;;;;;5.45;3.63;;;23.10;99.90;;;;;;7388118;19;20213;-78
2023/09/04 08:11:39;;;;;;;3.92;3.50;;;22.90;99.90;;;;;;7386239;19;20135;-78
2023/09/04 08:14:05;;;;;;;5.65;3.17;;;22.70;99.90;;;;;;7388746;19;20213;-78
2023/09/04 08:16:31;;;;;;;5.97;3.53;;;22.70;99.90;;;;;;7385992;19;20248;-77
2023/09/04 08:18:57;;;;;;;3.92;3.15;;;22.70;99.90;;;;;;7387963;19;20161;-80
2023/09/04 08:21:23;;;;;;;4.50;3.10;;;22.70;99.90;;;;;;7387047;19;20762;-80
2023/09/04 08:23:49;;;;;;;3.55;3.10;;;22.60;99.90;;;;;;7386347;19;20150;-80
2023/09/04 08:26:17;;;;;;;3.90;3.17;;;22.70;99.90;;;;;;7388610;19;20607;-80
2023/09/04 08:28:42;;;;;;;3.58;2.83;;;22.70;99.90;;;;;;7386630;19;20601;-80
2023/09/04 08:31:08;;;;;;;3.38;3.03;;;22.60;99.90;;;;;;7387100;19;20150;-78
2023/09/04 08:33:34;;;;;;;3.67;2.90;;;22.60;99.90;;;;;;7387638;19;20157;-79
2023/09/04 08:36:00;;;;;;;4.40;3.40;;;22.60;99.90;;;;;;7383920;19;20193;-79
2023/09/04 08:38:26;;;;;;;3.90;3.00;;;22.80;99.90;;;;;;7382250;19;20202;-79
2023/09/04 08:41:00;;;;;;;3.58;2.97;;;22.70;99.90;;;;;;7386156;19;20277;-80
2023/09/04 08:43:30;;;;;;;4.25;3.00;;;22.70;99.90;;;;;;7387226;19;20605;-78
2023/09/04 08:46:00;;;;;;;5.05;2.85;;;22.90;99.90;;;;;;7381864;19;20150;-78
2023/09/04 08:48:29;;;;;;;4.22;3.28;;;22.90;99.90;;;;;;7387576;19;20177;-78
2023/09/04 08:50:56;;;;;;;4.43;2.88;;;23.00;99.90;;;;;;7386829;19;20167;-81
2023/09/04 08:53:22;;;;;;;3.03;2.53;;;22.90;99.90;;;;;;7387893;19;20141;-78
2023/09/04 08:55:49;;;;;;;2.78;2.55;;;23.10;99.90;;;;;;7386034;19;20246;-79
2023/09/04 08:58:16;;;;;;;2.70;2.40;;;23.20;99.90;;;;;;7388020;19;20151;-79
2023/09/04 09:00:44;;;;;;;4.00;2.40;;;23.40;99.90;;;;;;7385074;19;20135;-82
2023/09/04 09:03:11;;;;;;;2.63;2.42;;;23.60;99.90;;;;;;7386166;19;20135;-82
2023/09/04 09:05:37;;;;;;;2.90;2.30;;;23.70;99.90;;;;;;7382118;19;20771;-79
2023/09/04 09:08:05;;;;;;;2.65;2.42;;;23.80;99.90;;;;;;7387265;19;20142;-81
2023/09/04 09:10:31;;;;;;;3.90;2.63;;;23.90;99.90;;;;;;7385650;19;20152;-83
2023/09/04 09:12:56;;;;;;;3.38;3.03;;;23.80;99.90;;;;;;7383833;19;20217;-80
2023/09/04 09:15:22;;;;;;;14.52;10.15;;;23.70;99.90;;;;;;7384578;19;20154;-80
2023/09/04 09:17:57;;;;;;;3.60;2.60;;;23.80;99.90;;;;;;7385855;19;20605;-79
2023/09/04 09:20:38;;;;;;;4.13;2.90;;;23.80;99.90;;;;;;7386918;19;20221;-79
2023/09/04 09:23:05;;;;;;;2.47;2.28;;;23.80;99.90;;;;;;7385156;19;20142;-80
2023/09/04 09:25:34;;;;;;;3.65;3.25;;;23.70;99.90;;;;;;7385900;19;20173;-77
2023/09/04 09:28:02;;;;;;;4.25;2.38;;;23.70;99.90;;;;;;7387086;19;20142;-80
2023/09/04 09:30:36;;;;;;;2.55;2.15;;;23.90;99.90;;;;;;7385035;19;20153;-82
2023/09/04 09:33:05;;;;;;;2.75;2.50;;;24.10;99.90;;;;;;7384478;19;20190;-81
2023/09/04 09:35:31;;;;;;;2.45;2.25;;;23.90;99.90;;;;;;7387850;19;20139;-78
2023/09/04 09:38:00;;;;;;;2.00;1.88;;;23.90;99.90;;;;;;7386072;19;20940;-79
2023/09/04 09:40:26;;;;;;;2.17;1.98;;;24.00;99.90;;;;;;7385417;19;20225;-79
2023/09/04 09:42:52;;;;;;;3.67;2.33;;;24.00;99.90;;;;;;7385343;19;20142;-80
2023/09/04 09:45:19;;;;;;;3.13;2.80;;;23.90;99.90;;;;;;7384730;19;20139;-80
2023/09/04 09:47:45;;;;;;;2.50;2.30;;;24.00;99.90;;;;;;7385213;19;20488;-79
2023/09/04 09:50:10;;;;;;;4.43;2.47;;;24.00;99.90;;;;;;7384765;19;20207;-80
2023/09/04 09:52:36;;;;;;;2.45;2.25;;;24.10;99.90;;;;;;7384231;19;20146;-81
2023/09/04 09:55:03;;;;;;;4.43;2.20;;;24.10;99.90;;;;;;7382657;19;20508;-80
2023/09/04 09:57:31;;;;;;;2.15;1.95;;;24.20;99.90;;;;;;7386853;19;20159;-80
2023/09/04 09:59:57;;;;;;;3.22;2.10;;;24.40;99.90;;;;;;7383010;19;20177;-79
2023/09/04 10:02:27;;;;;;;3.15;2.45;;;24.50;99.90;;;;;;7386273;19;20262;-80
2023/09/04 10:04:53;;;;;;;2.17;1.98;;;24.60;99.90;;;;;;7383600;19;20178;-79
2023/09/04 10:07:27;;;;;;;3.15;2.30;;;24.60;99.90;;;;;;7395752;19;20514;-79
2023/09/04 10:10:05;;;;;;;2.60;2.40;;;24.60;99.90;;;;;;7392864;19;20150;-82
2023/09/04 10:12:41;;;;;;;3.63;2.30;;;24.80;99.90;;;;;;7390177;19;20472;-80
2023/09/04 10:15:07;;;;;;;5.65;3.50;;;24.90;99.90;;;;;;7391552;19;20138;-80
2023/09/04 10:17:58;;;;;;;3.78;3.17;;;24.80;99.90;;;;;;7391055;19;20134;-79
2023/09/04 10:20:26;;;;;;;2.72;2.30;;;24.70;99.90;;;;;;7392637;19;20122;-77
2023/09/04 10:23:08;;;;;;;2.88;2.20;;;24.60;99.90;;;;;;7390248;19;20218;-78
2023/09/04 10:25:55;;;;;;;1.95;1.75;;;24.70;99.90;;;;;;7393721;19;20135;-78
2023/09/04 10:28:41;;;;;;;2.42;2.22;;;24.70;99.90;;;;;;7395978;19;20145;-80
2023/09/04 10:31:07;;;;;;;2.50;2.10;;;24.70;99.90;;;;;;7390799;19;20603;-79
2023/09/04 10:33:37;;;;;;;2.35;2.15;;;24.90;99.90;;;;;;7391079;19;20179;-78
2023/09/04 10:36:03;;;;;;;2.35;1.90;;;25.00;99.90;;;;;;7387999;19;20575;-79
2023/09/04 10:38:30;;;;;;;2.50;1.95;;;25.20;99.90;;;;;;7390992;19;20151;-80
2023/09/04 10:40:56;;;;;;;3.70;2.40;;;25.20;99.90;;;;;;7392933;19;20143;-79
2023/09/04 10:43:36;;;;;;;4.13;2.67;;;25.30;99.90;;;;;;7391838;19;20174;-79
2023/09/04 10:46:06;;;;;;;3.35;2.38;;;25.40;99.90;;;;;;7389512;19;20499;-79
2023/09/04 10:48:43;;;;;;;2.35;1.80;;;25.40;99.90;;;;;;7393135;19;20148;-79
2023/09/04 10:51:30;;;;;;;2.40;2.10;;;25.50;99.90;;;;;;7389219;19;20254;-79
2023/09/04 10:53:57;;;;;;;4.47;3.42;;;25.50;99.90;;;;;;7391871;19;20138;-80
2023/09/04 10:56:24;;;;;;;3.85;2.70;;;25.70;99.90;;;;;;7390428;19;20149;-80
2023/09/04 10:58:59;;;;;;;2.92;2.50;;;25.90;99.90;;;;;;7392991;19;20210;-79
2023/09/04 11:01:38;;;;;;;2.30;2.03;;;25.90;99.90;;;;;;7393874;19;20733;-79
2023/09/04 11:04:07;;;;;;;3.60;1.83;;;25.70;99.90;;;;;;7394357;19;20154;-80
2023/09/04 11:06:37;;;;;;;4.20;2.20;;;25.80;99.90;;;;;;7389141;19;20131;-80
2023/09/04 11:09:03;;;;;;;6.53;2.40;;;25.90;99.90;;;;;;7390536;19;20186;-80
2023/09/04 11:11:31;;;;;;;3.70;2.47;;;25.90;99.90;;;;;;7388113;19;20135;-79
2023/09/04 11:14:02;;;;;;;3.00;2.20;;;26.00;99.90;;;;;;7389217;19;20138;-80
2023/09/04 11:16:39;;;;;;;2.50;2.20;;;26.00;99.90;;;;;;7391602;19;20142;-79
2023/09/04 11:19:13;;;;;;;2.28;2.08;;;26.00;99.90;;;;;;7390045;19;20269;-81
2023/09/04 11:21:43;;;;;;;6.85;3.83;;;26.00;99.90;;;;;;7390089;19;20158;-80
2023/09/04 11:24:08;;;;;;;2.15;1.92;;;26.00;99.00;;;;;;7389287;19;20130;-79
2023/09/04 11:26:34;;;;;;;3.00;2.25;;;26.00;98.70;;;;;;7391287;19;20141;-80
2023/09/04 11:29:02;;;;;;;2.10;1.90;;;26.10;98.70;;;;;;7391023;19;20600;-79
2023/09/04 11:31:29;;;;;;;2.60;1.92;;;26.10;99.00;;;;;;7389317;19;20198;-81
2023/09/04 11:33:56;;;;;;;2.38;1.92;;;26.30;99.10;;;;;;7389925;19;20138;-79
2023/09/04 11:36:22;;;;;;;2.10;1.90;;;26.30;99.40;;;;;;7389081;19;20560;-79
2023/09/04 11:38:51;;;;;;;4.45;3.20;;;26.30;98.90;;;;;;7388530;19;20472;-78
2023/09/04 11:41:18;;;;;;;2.80;1.95;;;26.40;98.00;;;;;;7390852;19;20135;-80
2023/09/04 11:43:45;;;;;;;1.95;1.73;;;26.50;97.40;;;;;;7388810;19;20154;-82
2023/09/04 11:46:11;;;;;;;2.03;1.83;;;26.60;96.80;;;;;;7388394;19;20153;-78
2023/09/04 11:48:37;;;;;;;2.00;1.77;;;26.50;97.00;;;;;;7390592;19;20151;-79
2023/09/04 11:51:09;;;;;;;3.03;2.38;;;26.60;96.90;;;;;;7387343;19;20223;-81
2023/09/04 11:53:35;;;;;;;2.03;1.83;;;26.60;95.60;;;;;;7391479;19;20619;-78
2023/09/04 11:56:03;;;;;;;2.30;1.85;;;26.50;95.40;;;;;;7388932;19;20134;-78
2023/09/04 11:58:30;;;;;;;5.05;2.50;;;26.50;95.30;;;;;;7389510;19;20576;-79
2023/09/04 12:00:57;;;;;;;3.58;2.03;;;26.40;94.50;;;;;;7390541;19;20134;-80
2023/09/04 12:03:22;;;;;;;3.00;1.88;;;26.50;94.10;;;;;;7389872;19;20138;-80
2023/09/04 12:05:51;;;;;;;2.70;2.25;;;26.60;93.70;;;;;;7385450;19;20266;-80
2023/09/04 12:08:18;;;;;;;2.33;1.77;;;26.60;93.80;;;;;;7387299;19;20143;-79
2023/09/04 12:10:46;;;;;;;2.72;2.05;;;26.70;93.10;;;;;;7387549;19;20154;-80
2023/09/04 12:13:13;;;;;;;2.05;1.80;;;26.70;93.00;;;;;;7387994;19;20165;-79
2023/09/04 12:15:38;;;;;;;2.30;1.85;;;26.80;92.40;;;;;;7389293;19;20134;-81
2023/09/04 12:18:06;;;;;;;2.85;2.00;;;26.80;91.90;;;;;;7387965;19;20139;-79
2023/09/04 12:20:45;;;;;;;4.05;1.70;;;26.80;91.50;;;;;;7390081;19;20158;-77
2023/09/04 12:23:11;;;;;;;2.33;1.98;;;26.80;91.10;;;;;;7386703;19;20150;-78
2023/09/04 12:25:42;;;;;;;2.53;2.00;;;26.80;91.10;;;;;;7388677;19;20250;-77
2023/09/04 12:28:13;;;;;;;2.33;1.77;;;26.90;89.70;;;;;;7390652;19;20521;-81
2023/09/04 12:30:44;;;;;;;3.25;1.70;;;27.00;90.30;;;;;;7392356;19;20142;-80
2023/09/04 12:33:11;;;;;;;5.88;2.30;;;27.20;90.60;;;;;;7390277;19;20138;-80
2023/09/04 12:35:38;;;;;;;2.92;1.83;;;27.20;90.30;;;;;;7388559;19;20199;-79
2023/09/04 12:38:04;;;;;;;1.85;1.67;;;27.30;90.50;;;;;;7388771;19;20527;-81
2023/09/04 12:40:31;;;;;;;4.25;1.92;;;27.40;88.90;;;;;;7395073;19;20119;-80
2023/09/04 12:42:57;;;;;;;10.90;8.50;;;27.50;87.80;;;;;;7397169;19;20222;-80
2023/09/04 12:45:23;;;;;;;2.40;1.85;;;27.50;88.00;;;;;;7396744;19;20134;-81
2023/09/04 12:47:48;;;;;;;2.13;1.77;;;27.50;87.50;;;;;;7390820;19;20177;-81